createdAt,value
2023-04-27T00:00:31.572Z,5826.00
2023-04-27T00:01:31.669Z,5940.00
2023-04-27T00:02:31.770Z,6044.00
2023-04-27T00:03:31.900Z,6036.00
2023-04-27T00:04:32.087Z,5960.00
2023-04-27T00:05:31.963Z,5718.00
2023-04-27T00:06:31.848Z,5732.00
2023-04-27T00:07:31.899Z,5813.00
2023-04-27T00:08:31.889Z,5969.00
2023-04-27T00:09:31.949Z,6031.00
2023-04-27T00:10:31.949Z,6146.00
2023-04-27T00:11:31.985Z,6209.00
2023-04-27T00:12:32.008Z,6257.00
2023-04-27T00:13:31.973Z,6325.00
2023-04-27T00:14:32.002Z,6281.00
2023-04-27T00:15:32.003Z,6360.00
2023-04-27T00:16:32.014Z,6268.00
2023-04-27T00:17:32.021Z,6189.00
2023-04-27T00:18:31.991Z,6035.00
2023-04-27T00:19:32.001Z,5623.00
2023-04-27T00:20:32.005Z,5699.00
2023-04-27T00:21:32.037Z,5736.00
2023-04-27T00:22:32.051Z,5256.00
2023-04-27T00:23:32.049Z,5000.00
2023-04-27T00:24:32.051Z,4944.00
2023-04-27T00:25:32.102Z,5037.00
2023-04-27T00:26:32.140Z,4948.00
2023-04-27T00:27:32.401Z,4809.00
2023-04-27T00:28:32.194Z,4944.00
2023-04-27T00:29:32.197Z,4883.00
2023-04-27T00:30:32.240Z,4892.00
2023-04-27T00:31:32.302Z,4948.00
2023-04-27T00:32:32.351Z,4825.00
2023-04-27T00:33:32.296Z,4822.00
2023-04-27T00:34:32.335Z,4650.00
2023-04-27T00:35:32.413Z,4599.00
2023-04-27T00:36:32.427Z,4543.00
2023-04-27T00:37:32.432Z,4435.00
2023-04-27T00:38:32.433Z,4240.00
2023-04-27T00:39:32.468Z,4065.00
2023-04-27T00:40:32.443Z,4029.00
2023-04-27T00:41:32.535Z,3997.00
2023-04-27T00:42:32.559Z,4058.00
2023-04-27T00:43:32.592Z,4101.00
2023-04-27T00:44:32.618Z,4344.00
2023-04-27T00:45:32.717Z,4392.00
2023-04-27T00:46:32.762Z,4506.00
2023-04-27T00:47:32.793Z,4277.00
2023-04-27T00:48:32.699Z,4126.00
2023-04-27T00:49:32.720Z,4105.00
2023-04-27T00:50:32.743Z,4100.00
2023-04-27T00:51:32.769Z,4076.00
2023-04-27T00:52:32.873Z,4147.00
2023-04-27T00:53:32.891Z,4120.00
2023-04-27T00:54:32.888Z,4254.00
2023-04-27T00:55:32.937Z,4313.00
2023-04-27T00:56:32.975Z,4548.00
2023-04-27T00:57:33.011Z,4505.00
2023-04-27T00:58:33.069Z,4314.00
2023-04-27T00:59:33.045Z,4213.00
2023-04-27T01:00:33.141Z,4239.00
2023-04-27T01:01:33.261Z,4389.00
2023-04-27T01:02:33.392Z,4634.00
2023-04-27T01:03:33.361Z,4915.00
2023-04-27T01:04:33.482Z,4937.00
2023-04-27T01:05:33.329Z,4721.00
2023-04-27T01:06:33.482Z,4664.00
2023-04-27T01:07:33.393Z,4861.00
2023-04-27T01:08:33.411Z,4921.00
2023-04-27T01:09:33.430Z,4869.00
2023-04-27T01:10:33.437Z,4777.00
2023-04-27T01:11:33.477Z,4787.00
2023-04-27T01:12:33.525Z,4743.00
2023-04-27T01:13:33.542Z,4729.00
2023-04-27T01:14:33.531Z,4659.00
2023-04-27T01:15:33.550Z,4608.00
2023-04-27T01:16:33.546Z,4555.00
2023-04-27T01:17:33.542Z,4570.00
2023-04-27T01:18:33.526Z,4590.00
2023-04-27T01:19:33.559Z,4816.00
2023-04-27T01:20:33.544Z,4926.00
2023-04-27T01:21:33.586Z,4834.00
2023-04-27T01:22:33.592Z,4908.00
2023-04-27T01:23:33.603Z,4994.00
2023-04-27T01:24:33.653Z,5106.00
2023-04-27T01:25:33.615Z,5026.00
2023-04-27T01:26:33.612Z,5029.00
2023-04-27T01:27:33.627Z,5141.00
2023-04-27T01:28:33.626Z,5261.00
2023-04-27T01:29:33.650Z,5467.00
2023-04-27T01:30:33.714Z,5564.00
2023-04-27T01:31:33.744Z,5485.00
2023-04-27T01:32:33.798Z,5511.00
2023-04-27T01:33:33.795Z,5629.00
2023-04-27T01:34:33.844Z,5745.00
2023-04-27T01:35:33.932Z,5835.00
2023-04-27T01:36:33.863Z,5810.00
2023-04-27T01:37:33.935Z,5743.00
2023-04-27T01:38:33.909Z,5536.00
2023-04-27T01:39:33.982Z,5352.00
2023-04-27T01:40:34.002Z,5331.00
2023-04-27T01:41:34.050Z,5353.00
2023-04-27T01:42:34.112Z,5332.00
2023-04-27T01:43:34.160Z,5063.00
2023-04-27T01:44:34.218Z,5002.00
2023-04-27T01:45:34.276Z,4977.00
2023-04-27T01:46:34.417Z,4901.00
2023-04-27T01:47:34.452Z,4868.00
2023-04-27T01:48:34.584Z,4864.00
2023-04-27T01:49:34.492Z,4610.00
2023-04-27T01:50:34.613Z,4413.00
2023-04-27T01:51:34.667Z,4448.00
2023-04-27T01:52:34.768Z,4491.00
2023-04-27T01:53:34.802Z,4742.00
2023-04-27T01:54:34.840Z,4622.00
2023-04-27T01:55:34.906Z,4362.00
2023-04-27T01:56:34.965Z,4211.00
2023-04-27T01:57:35.010Z,4195.00
2023-04-27T01:58:35.019Z,4262.00
2023-04-27T01:59:35.080Z,4491.00
2023-04-27T02:00:35.102Z,4687.00
2023-04-27T02:01:35.232Z,4706.00
2023-04-27T02:02:35.355Z,4683.00
2023-04-27T02:03:35.411Z,4551.00
2023-04-27T02:04:35.335Z,4405.00
2023-04-27T02:05:35.299Z,4333.00
2023-04-27T02:06:35.293Z,4396.00
2023-04-27T02:07:35.305Z,4584.00
2023-04-27T02:08:35.330Z,4560.00
2023-04-27T02:09:35.355Z,4389.00
2023-04-27T02:10:35.334Z,4370.00
2023-04-27T02:11:35.360Z,4307.00
2023-04-27T02:12:35.385Z,4360.00
2023-04-27T02:13:35.448Z,4508.00
2023-04-27T02:14:35.501Z,4482.00
2023-04-27T02:15:35.554Z,4646.00
2023-04-27T02:16:35.725Z,4698.00
2023-04-27T02:17:35.637Z,4555.00
2023-04-27T02:18:35.691Z,4572.00
2023-04-27T02:19:35.746Z,4667.00
2023-04-27T02:20:35.749Z,4941.00
2023-04-27T02:21:35.740Z,5059.00
2023-04-27T02:22:35.758Z,4955.00
2023-04-27T02:23:35.771Z,4888.00
2023-04-27T02:24:35.779Z,4898.00
2023-04-27T02:25:35.777Z,5071.00
2023-04-27T02:26:35.797Z,5002.00
2023-04-27T02:27:35.804Z,5058.00
2023-04-27T02:28:35.853Z,5143.00
2023-04-27T02:29:35.873Z,5166.00
2023-04-27T02:30:35.878Z,5203.00
2023-04-27T02:31:35.980Z,5277.00
2023-04-27T02:32:35.976Z,5358.00
2023-04-27T02:33:35.989Z,5413.00
2023-04-27T02:34:36.032Z,5411.00
2023-04-27T02:35:36.067Z,5290.00
2023-04-27T02:36:36.075Z,5151.00
2023-04-27T02:37:36.134Z,5056.00
2023-04-27T02:38:36.122Z,5068.00
2023-04-27T02:39:36.182Z,5077.00
2023-04-27T02:40:36.188Z,5537.00
2023-04-27T02:41:36.187Z,5394.00
2023-04-27T02:42:36.292Z,5238.00
2023-04-27T02:43:36.199Z,5484.00
2023-04-27T02:44:36.204Z,5471.00
2023-04-27T02:45:36.219Z,5350.00
2023-04-27T02:46:36.320Z,5143.00
2023-04-27T02:47:36.342Z,5021.00
2023-04-27T02:48:36.248Z,4949.00
2023-04-27T02:49:38.035Z,5051.00
2023-04-27T02:50:36.258Z,5220.00
2023-04-27T02:51:36.267Z,5381.00
2023-04-27T02:52:36.328Z,5463.00
2023-04-27T02:53:36.277Z,5363.00
2023-04-27T02:54:36.321Z,5434.00
2023-04-27T02:55:36.334Z,5501.00
2023-04-27T02:56:36.286Z,5580.00
2023-04-27T02:57:36.316Z,5649.00
2023-04-27T02:58:36.361Z,5631.00
2023-04-27T02:59:36.363Z,5604.00
2023-04-27T03:00:36.441Z,5619.00
2023-04-27T03:01:36.576Z,5603.00
2023-04-27T03:02:36.755Z,5622.00
2023-04-27T03:03:36.735Z,5860.00
2023-04-27T03:04:36.766Z,5931.00
2023-04-27T03:05:36.635Z,5795.00
2023-04-27T03:06:36.663Z,5507.00
2023-04-27T03:07:36.676Z,5448.00
2023-04-27T03:08:36.623Z,5358.00
2023-04-27T03:09:36.645Z,5424.00
2023-04-27T03:10:36.648Z,5461.00
2023-04-27T03:11:37.423Z,5394.00
2023-04-27T03:12:36.738Z,5404.00
2023-04-27T03:13:36.735Z,5568.00
2023-04-27T03:14:36.737Z,5683.00
2023-04-27T03:15:36.728Z,6006.00
2023-04-27T03:16:36.783Z,6035.00
2023-04-27T03:17:36.874Z,5804.00
2023-04-27T03:18:36.794Z,5636.00
2023-04-27T03:19:36.778Z,5633.00
2023-04-27T03:20:36.775Z,5380.00
2023-04-27T03:21:36.778Z,5143.00
2023-04-27T03:22:36.838Z,5068.00
2023-04-27T03:23:36.782Z,4993.00
2023-04-27T03:24:36.795Z,4999.00
2023-04-27T03:25:36.824Z,4997.00
2023-04-27T03:26:36.815Z,5019.00
2023-04-27T03:27:36.816Z,5155.00
2023-04-27T03:28:36.868Z,5150.00
2023-04-27T03:29:36.943Z,5283.00
2023-04-27T03:30:36.989Z,5273.00
2023-04-27T03:31:37.074Z,5200.00
2023-04-27T03:32:37.568Z,5373.00
2023-04-27T03:33:37.122Z,5414.00
2023-04-27T03:34:37.114Z,5279.00
2023-04-27T03:35:37.133Z,5332.00
2023-04-27T03:36:37.088Z,5508.00
2023-04-27T03:37:37.144Z,5546.00
2023-04-27T03:38:37.111Z,5528.00
2023-04-27T03:39:37.100Z,5598.00
2023-04-27T03:40:37.119Z,5831.00
2023-04-27T03:41:37.120Z,5905.00
2023-04-27T03:42:37.143Z,5971.00
2023-04-27T03:43:37.129Z,6093.00
2023-04-27T03:44:37.130Z,6143.00
2023-04-27T03:45:37.236Z,6216.00
2023-04-27T03:46:37.150Z,6297.00
2023-04-27T03:47:37.179Z,6323.00
2023-04-27T03:48:37.132Z,6440.00
2023-04-27T03:49:37.158Z,6567.00
2023-04-27T03:50:37.193Z,6672.00
2023-04-27T03:51:37.123Z,6685.00
2023-04-27T03:52:37.150Z,6691.00
2023-04-27T03:53:37.140Z,6551.00
2023-04-27T03:54:37.213Z,6462.00
2023-04-27T03:55:37.207Z,6367.00
2023-04-27T03:56:37.205Z,6309.00
2023-04-27T03:57:37.286Z,6225.00
2023-04-27T03:58:37.284Z,6190.00
2023-04-27T03:59:37.287Z,6303.00
2023-04-27T04:00:37.321Z,6332.00
2023-04-27T04:01:37.463Z,6422.00
2023-04-27T04:02:37.468Z,6348.00
2023-04-27T04:03:37.504Z,6394.00
2023-04-27T04:04:37.579Z,6491.00
2023-04-27T04:05:37.485Z,6387.00
2023-04-27T04:06:37.546Z,6400.00
2023-04-27T04:07:37.616Z,6517.00
2023-04-27T04:08:37.610Z,6594.00
2023-04-27T04:09:45.345Z,6536.00
2023-04-27T04:10:37.668Z,6539.00
2023-04-27T04:11:37.663Z,6555.00
2023-04-27T04:12:37.716Z,6590.00
2023-04-27T04:13:37.639Z,6553.00
2023-04-27T04:14:37.646Z,6556.00
2023-04-27T04:15:37.690Z,6318.00
2023-04-27T04:16:37.668Z,6268.00
2023-04-27T04:17:37.693Z,6263.00
2023-04-27T04:18:37.655Z,6241.00
2023-04-27T04:19:37.631Z,6295.00
2023-04-27T04:20:37.618Z,6512.00
2023-04-27T04:21:37.578Z,6616.00
2023-04-27T04:22:37.650Z,6707.00
2023-04-27T04:23:37.596Z,6836.00
2023-04-27T04:24:37.562Z,6983.00
2023-04-27T04:25:37.599Z,7004.00
2023-04-27T04:26:37.591Z,7158.00
2023-04-27T04:27:37.573Z,7323.00
2023-04-27T04:28:37.590Z,7444.00
2023-04-27T04:29:37.567Z,7522.00
2023-04-27T04:30:37.639Z,7458.00
2023-04-27T04:31:37.700Z,7460.00
2023-04-27T04:32:37.845Z,7615.00
2023-04-27T04:33:37.727Z,7498.00
2023-04-27T04:34:37.745Z,7490.00
2023-04-27T04:35:37.807Z,7663.00
2023-04-27T04:36:37.801Z,7637.00
2023-04-27T04:37:37.992Z,7798.00
2023-04-27T04:38:37.945Z,7817.00
2023-04-27T04:39:37.989Z,7638.00
2023-04-27T04:40:38.119Z,7597.00
2023-04-27T04:41:38.054Z,7542.00
2023-04-27T04:42:38.179Z,7601.00
2023-04-27T04:43:38.170Z,7643.00
2023-04-27T04:44:38.113Z,7441.00
2023-04-27T04:45:38.148Z,7651.00
2023-04-27T04:46:38.216Z,7716.00
2023-04-27T04:47:38.235Z,7823.00
2023-04-27T04:48:38.277Z,7901.00
2023-04-27T04:49:38.333Z,7983.00
2023-04-27T04:50:38.382Z,8163.00
2023-04-27T04:51:38.450Z,8237.00
2023-04-27T04:52:38.489Z,8372.00
2023-04-27T04:53:38.522Z,8381.00
2023-04-27T04:54:38.598Z,8237.00
2023-04-27T04:55:38.617Z,8209.00
2023-04-27T04:56:38.626Z,8068.00
2023-04-27T04:57:38.752Z,7898.00
2023-04-27T04:59:58.442Z,500.00
2023-04-27T05:02:25.743Z,500.00
2023-04-27T05:03:17.996Z,500.00
2023-04-27T05:04:18.016Z,500.00
2023-04-27T05:05:17.860Z,500.00
2023-04-27T05:06:17.868Z,500.00
2023-04-27T05:07:20.871Z,500.00
2023-04-27T05:08:18.790Z,500.00
2023-04-27T05:09:17.780Z,500.00
2023-04-27T05:10:17.805Z,500.00
2023-04-27T05:11:17.796Z,500.00
2023-04-27T05:12:17.853Z,500.00
2023-04-27T05:13:17.811Z,543.00
2023-04-27T05:14:17.835Z,559.00
2023-04-27T05:15:17.783Z,470.00
2023-04-27T05:16:17.849Z,500.00
2023-04-27T05:17:17.783Z,569.00
2023-04-27T05:18:17.761Z,794.00
2023-04-27T05:19:17.749Z,962.00
2023-04-27T05:20:17.845Z,1050.00
2023-04-27T05:21:17.791Z,786.00
2023-04-27T05:22:17.868Z,846.00
2023-04-27T05:23:17.920Z,945.00
2023-04-27T05:24:17.933Z,767.00
2023-04-27T05:25:18.012Z,657.00
2023-04-27T05:26:18.021Z,695.00
2023-04-27T05:27:18.020Z,888.00
2023-04-27T05:28:18.056Z,1085.00
2023-04-27T05:29:18.125Z,1002.00
2023-04-27T05:30:18.019Z,1083.00
2023-04-27T05:31:18.091Z,1090.00
2023-04-27T05:32:18.068Z,1230.00
2023-04-27T05:33:18.133Z,1314.00
2023-04-27T05:34:18.028Z,1189.00
2023-04-27T05:35:18.090Z,1111.00
2023-04-27T05:36:18.066Z,860.00
2023-04-27T05:37:18.132Z,860.00
2023-04-27T05:38:18.605Z,917.00
2023-04-27T05:39:18.175Z,1103.00
2023-04-27T05:40:18.204Z,1373.00
2023-04-27T05:41:18.202Z,1613.00
2023-04-27T05:42:18.280Z,1673.00
2023-04-27T05:43:18.624Z,1827.00
2023-04-27T05:44:18.324Z,1886.00
2023-04-27T05:46:45.605Z,500.00
2023-04-27T05:47:38.104Z,500.00
2023-04-27T05:48:37.941Z,500.00
2023-04-27T05:49:37.964Z,500.00
2023-04-27T05:50:37.992Z,500.00
2023-04-27T05:51:37.923Z,500.00
2023-04-27T05:52:38.385Z,500.00
2023-04-27T05:53:38.022Z,482.00
2023-04-27T05:54:37.927Z,481.00
2023-04-27T05:55:37.913Z,400.00
2023-04-27T05:56:37.941Z,400.00
2023-04-27T05:57:38.077Z,400.00
2023-04-27T05:58:38.181Z,400.00
2023-04-27T05:59:37.883Z,400.00
2023-04-27T06:00:37.943Z,410.00
2023-04-27T06:01:37.898Z,514.00
2023-04-27T06:02:38.137Z,500.00
2023-04-27T06:03:38.372Z,533.00
2023-04-27T06:04:37.986Z,517.00
2023-04-27T06:05:38.043Z,517.00
2023-04-27T06:06:37.923Z,523.00
2023-04-27T06:07:38.012Z,551.00
2023-04-27T06:08:38.010Z,503.00
2023-04-27T06:09:38.064Z,562.00
2023-04-27T06:10:38.026Z,521.00
2023-04-27T06:11:38.108Z,500.00
2023-04-27T06:12:38.254Z,496.00
2023-04-27T06:13:38.219Z,526.00
2023-04-27T06:14:38.194Z,613.00
2023-04-27T06:15:38.308Z,672.00
2023-04-27T06:16:38.192Z,768.00
2023-04-27T06:17:38.314Z,760.00
2023-04-27T06:18:38.300Z,860.00
2023-04-27T06:19:38.353Z,974.00
2023-04-27T06:20:38.345Z,1037.00
2023-04-27T06:21:38.410Z,1089.00
2023-04-27T06:22:38.405Z,976.00
2023-04-27T06:23:38.945Z,955.00
2023-04-27T06:24:38.442Z,839.00
2023-04-27T06:25:38.422Z,818.00
2023-04-27T06:26:38.490Z,847.00
2023-04-27T06:27:39.246Z,796.00
2023-04-27T06:28:38.639Z,720.00
2023-04-27T06:29:38.682Z,758.00
2023-04-27T06:30:39.636Z,740.00
2023-04-27T06:31:38.817Z,698.00
2023-04-27T06:32:38.709Z,784.00
2023-04-27T06:33:39.206Z,867.00
2023-04-27T06:34:39.219Z,861.00
2023-04-27T06:35:38.734Z,969.00
2023-04-27T06:36:38.714Z,1022.00
2023-04-27T06:37:38.840Z,1027.00
2023-04-27T06:38:39.365Z,963.00
2023-04-27T06:39:38.845Z,665.00
2023-04-27T06:40:38.733Z,665.00
2023-04-27T06:41:38.860Z,732.00
2023-04-27T06:42:38.787Z,660.00
2023-04-27T06:43:39.308Z,685.00
2023-04-27T06:44:39.033Z,765.00
2023-04-27T06:45:38.896Z,833.00
2023-04-27T06:46:39.268Z,923.00
2023-04-27T06:47:39.229Z,972.00
2023-04-27T06:48:38.990Z,965.00
2023-04-27T06:49:38.992Z,835.00
2023-04-27T06:50:39.011Z,494.00
2023-04-27T06:51:39.063Z,517.00
2023-04-27T06:52:39.499Z,575.00
2023-04-27T06:53:39.214Z,659.00
2023-04-27T06:54:39.154Z,851.00
2023-04-27T06:55:40.419Z,945.00
2023-04-27T06:56:39.154Z,861.00
2023-04-27T06:57:39.166Z,804.00
2023-04-27T06:58:39.186Z,817.00
2023-04-27T06:59:39.122Z,934.00
2023-04-27T07:00:39.300Z,897.00
2023-04-27T07:01:39.238Z,880.00
2023-04-27T07:02:39.164Z,1004.00
2023-04-27T07:03:40.000Z,1026.00
2023-04-27T07:04:39.514Z,1138.00
2023-04-27T07:05:39.974Z,1166.00
2023-04-27T07:06:39.736Z,1095.00
2023-04-27T07:07:39.054Z,802.00
2023-04-27T07:08:39.580Z,595.00
2023-04-27T07:09:48.001Z,558.00
2023-04-27T07:10:39.080Z,544.00
2023-04-27T07:11:39.390Z,421.00
2023-04-27T07:12:39.048Z,400.00
2023-04-27T07:13:39.241Z,400.00
2023-04-27T07:14:39.817Z,400.00
2023-04-27T07:15:39.091Z,400.00
2023-04-27T07:16:39.095Z,496.00
2023-04-27T07:17:39.050Z,618.00
2023-04-27T07:18:39.269Z,613.00
2023-04-27T07:19:38.997Z,410.00
2023-04-27T07:20:38.987Z,443.00
2023-04-27T07:21:38.938Z,526.00
2023-04-27T07:22:38.987Z,594.00
2023-04-27T07:23:39.009Z,646.00
2023-04-27T07:24:39.390Z,633.00
2023-04-27T07:25:38.913Z,586.00
2023-04-27T07:26:39.265Z,487.00
2023-04-27T07:27:38.885Z,488.00
2023-04-27T07:28:39.356Z,490.00
2023-04-27T07:29:38.950Z,511.00
2023-04-27T07:30:38.906Z,400.00
2023-04-27T07:31:39.451Z,400.00
2023-04-27T07:32:38.953Z,400.00
2023-04-27T07:33:39.724Z,400.00
2023-04-27T07:34:52.042Z,400.00
2023-04-27T07:35:39.883Z,400.00
2023-04-27T07:36:38.877Z,400.00
2023-04-27T07:37:38.879Z,405.00
2023-04-27T07:38:38.981Z,400.00
2023-04-27T07:39:39.109Z,400.00
2023-04-27T07:40:39.310Z,400.00
2023-04-27T07:41:38.918Z,544.00
2023-04-27T07:42:38.913Z,559.00
2023-04-27T07:43:38.838Z,421.00
2023-04-27T07:44:38.892Z,400.00
2023-04-27T07:45:38.900Z,400.00
2023-04-27T07:46:38.757Z,400.00
2023-04-27T07:47:38.830Z,479.00
2023-04-27T07:48:38.869Z,598.00
2023-04-27T07:49:39.192Z,715.00
2023-04-27T07:50:38.778Z,945.00
2023-04-27T07:51:38.731Z,950.00
2023-04-27T07:52:39.151Z,991.00
2023-04-27T07:53:38.753Z,1162.00
2023-04-27T07:54:38.807Z,1227.00
2023-04-27T07:55:38.770Z,1270.00
2023-04-27T07:56:38.764Z,1242.00
2023-04-27T07:57:38.808Z,1169.00
2023-04-27T07:58:38.818Z,1102.00
2023-04-27T07:59:38.822Z,856.00
2023-04-27T08:00:38.687Z,860.00
2023-04-27T08:01:38.733Z,646.00
2023-04-27T08:02:39.018Z,632.00
2023-04-27T08:03:39.059Z,590.00
2023-04-27T08:04:39.214Z,500.00
2023-04-27T08:05:39.221Z,588.00
2023-04-27T08:06:39.311Z,606.00
2023-04-27T08:07:44.140Z,551.00
2023-04-27T08:08:40.123Z,539.00
2023-04-27T08:09:39.211Z,555.00
2023-04-27T08:10:39.004Z,457.00
2023-04-27T08:11:39.008Z,400.00
2023-04-27T08:12:39.043Z,400.00
2023-04-27T08:13:39.871Z,415.00
2023-04-27T08:14:39.028Z,418.00
2023-04-27T08:15:39.028Z,434.00
2023-04-27T08:16:46.650Z,423.00
2023-04-27T08:17:39.111Z,425.00
2023-04-27T08:18:38.956Z,400.00
2023-04-27T08:19:39.045Z,400.00
2023-04-27T08:20:38.950Z,400.00
2023-04-27T08:21:38.961Z,400.00
2023-04-27T08:22:38.889Z,400.00
2023-04-27T08:23:39.605Z,400.00
2023-04-27T08:24:38.979Z,400.00
2023-04-27T08:25:39.580Z,400.00
2023-04-27T08:26:38.921Z,400.00
2023-04-27T08:27:38.912Z,400.00
2023-04-27T08:28:38.952Z,400.00
2023-04-27T08:29:38.929Z,400.00
2023-04-27T08:30:38.929Z,400.00
2023-04-27T08:31:38.964Z,400.00
2023-04-27T08:32:38.939Z,440.00
2023-04-27T08:33:38.987Z,503.00
2023-04-27T08:34:39.167Z,578.00
2023-04-27T08:35:38.860Z,659.00
2023-04-27T08:36:38.906Z,584.00
2023-04-27T08:37:38.876Z,497.00
2023-04-27T08:38:38.872Z,424.00
2023-04-27T08:39:39.531Z,500.00
2023-04-27T08:40:39.007Z,458.00
2023-04-27T08:41:39.016Z,429.00
2023-04-27T08:42:39.014Z,504.00
2023-04-27T08:43:39.108Z,613.00
2023-04-27T08:44:39.118Z,534.00
2023-04-27T08:45:39.233Z,400.00
2023-04-27T08:46:39.309Z,400.00
2023-04-27T08:47:43.341Z,441.00
2023-04-27T08:48:39.358Z,444.00
2023-04-27T08:49:39.263Z,468.00
2023-04-27T08:50:40.192Z,496.00
2023-04-27T08:51:39.218Z,503.00
2023-04-27T08:52:39.400Z,541.00
2023-04-27T08:53:39.294Z,595.00
2023-04-27T08:54:39.494Z,744.00
2023-04-27T08:55:39.159Z,899.00
2023-04-27T08:56:39.170Z,593.00
2023-04-27T08:57:39.125Z,400.00
2023-04-27T08:58:39.134Z,400.00
2023-04-27T08:59:39.353Z,506.00
2023-04-27T09:00:39.146Z,594.00
2023-04-27T09:01:39.209Z,598.00
2023-04-27T09:02:39.310Z,476.00
2023-04-27T09:03:39.852Z,524.00
2023-04-27T09:04:39.263Z,635.00
2023-04-27T09:05:44.104Z,639.00
2023-04-27T09:06:40.169Z,641.00
2023-04-27T09:07:46.713Z,657.00
2023-04-27T09:08:39.051Z,644.00
2023-04-27T09:09:39.046Z,649.00
2023-04-27T09:10:39.226Z,659.00
2023-04-27T09:11:39.070Z,766.00
2023-04-27T09:12:39.012Z,1185.00
2023-04-27T09:13:39.068Z,846.00
2023-04-27T09:14:39.038Z,771.00
2023-04-27T09:15:38.991Z,992.00
2023-04-27T09:16:39.220Z,1358.00
2023-04-27T09:17:39.261Z,1506.00
2023-04-27T09:18:38.991Z,1196.00
2023-04-27T09:19:39.058Z,1145.00
2023-04-27T09:20:38.977Z,920.00
2023-04-27T09:21:38.980Z,786.00
2023-04-27T09:22:38.965Z,787.00
2023-04-27T09:23:38.979Z,629.00
2023-04-27T09:24:39.087Z,622.00
2023-04-27T09:25:39.020Z,631.00
2023-04-27T09:26:38.908Z,572.00
2023-04-27T09:27:38.969Z,724.00
2023-04-27T09:28:39.082Z,817.00
2023-04-27T09:29:39.139Z,865.00
2023-04-27T09:30:39.257Z,649.00
2023-04-27T09:31:39.223Z,648.00
2023-04-27T09:32:39.178Z,678.00
2023-04-27T09:33:39.184Z,652.00
2023-04-27T09:34:39.264Z,500.00
2023-04-27T09:35:39.798Z,429.00
2023-04-27T09:36:39.270Z,547.00
2023-04-27T09:37:41.256Z,484.00
2023-04-27T09:38:39.396Z,536.00
2023-04-27T09:39:39.401Z,665.00
2023-04-27T09:41:06.763Z,500.00
2023-04-27T09:42:05.834Z,500.00
2023-04-27T09:43:05.747Z,500.00
2023-04-27T09:44:05.885Z,500.00
2023-04-27T09:45:06.176Z,500.00
2023-04-27T09:46:06.100Z,501.00
2023-04-27T09:47:05.765Z,547.00
2023-04-27T09:48:06.192Z,465.00
2023-04-27T09:49:05.698Z,582.00
2023-04-27T09:50:05.699Z,585.00
2023-04-27T09:51:06.184Z,686.00
2023-04-27T09:52:05.645Z,851.00
2023-04-27T09:53:05.634Z,569.00
2023-04-27T09:54:05.728Z,465.00
2023-04-27T09:55:05.617Z,427.00
2023-04-27T09:56:05.943Z,433.00
2023-04-27T09:57:05.631Z,443.00
2023-04-27T09:58:05.594Z,552.00
2023-04-27T09:59:05.661Z,630.00
2023-04-27T10:00:06.075Z,652.00
2023-04-27T10:01:06.055Z,605.00
2023-04-27T10:02:16.984Z,643.00
2023-04-27T10:03:06.647Z,648.00
2023-04-27T10:04:05.819Z,661.00
2023-04-27T10:05:05.647Z,725.00
2023-04-27T10:06:05.730Z,762.00
2023-04-27T10:07:05.587Z,556.00
2023-04-27T10:08:05.530Z,535.00
2023-04-27T10:09:05.626Z,497.00
2023-04-27T10:10:05.944Z,596.00
2023-04-27T10:11:06.007Z,600.00
2023-04-27T10:12:05.859Z,615.00
2023-04-27T10:13:05.543Z,500.00
2023-04-27T10:14:06.065Z,518.00
2023-04-27T10:15:05.583Z,656.00
2023-04-27T10:16:06.073Z,629.00
2023-04-27T10:17:06.617Z,546.00
2023-04-27T10:18:05.841Z,797.00
2023-04-27T10:19:05.793Z,567.00
2023-04-27T10:20:05.957Z,933.00
2023-04-27T10:21:05.921Z,1252.00
2023-04-27T10:22:06.007Z,710.00
2023-04-27T10:23:05.909Z,700.00
2023-04-27T10:24:06.054Z,953.00
2023-04-27T10:25:05.951Z,863.00
2023-04-27T10:26:06.032Z,664.00
2023-04-27T10:27:05.938Z,659.00
2023-04-27T10:28:06.152Z,589.00
2023-04-27T10:29:06.027Z,642.00
2023-04-27T10:30:06.480Z,661.00
2023-04-27T10:31:06.244Z,601.00
2023-04-27T10:32:06.146Z,741.00
2023-04-27T10:33:06.347Z,1047.00
2023-04-27T10:34:06.208Z,832.00
2023-04-27T10:35:06.243Z,686.00
2023-04-27T10:36:06.538Z,605.00
2023-04-27T10:37:06.641Z,587.00
2023-04-27T10:38:06.457Z,570.00
2023-04-27T10:39:06.464Z,679.00
2023-04-27T10:40:06.465Z,1114.00
2023-04-27T10:41:06.515Z,1022.00
2023-04-27T10:42:06.379Z,1081.00
2023-04-27T10:43:06.557Z,1010.00
2023-04-27T10:44:06.489Z,917.00
2023-04-27T10:45:06.488Z,731.00
2023-04-27T10:46:06.993Z,683.00
2023-04-27T10:47:06.512Z,718.00
2023-04-27T10:48:06.576Z,1011.00
2023-04-27T10:49:06.625Z,1225.00
2023-04-27T10:50:06.578Z,1172.00
2023-04-27T10:51:06.610Z,1273.00
2023-04-27T10:52:06.547Z,1078.00
2023-04-27T10:53:06.574Z,1075.00
2023-04-27T10:54:06.667Z,934.00
2023-04-27T10:55:06.654Z,1015.00
2023-04-27T10:56:06.902Z,1183.00
2023-04-27T10:57:06.880Z,1477.00
2023-04-27T10:58:06.803Z,1055.00
2023-04-27T10:59:06.884Z,1047.00
2023-04-27T11:00:06.906Z,1013.00
2023-04-27T11:01:07.022Z,957.00
2023-04-27T11:02:06.980Z,1049.00
2023-04-27T11:03:07.100Z,1034.00
2023-04-27T11:04:07.091Z,1039.00
2023-04-27T11:05:07.161Z,760.00
2023-04-27T11:06:07.186Z,692.00
2023-04-27T11:07:07.793Z,793.00
2023-04-27T11:08:07.243Z,919.00
2023-04-27T11:09:07.432Z,870.00
2023-04-27T11:10:07.318Z,707.00
2023-04-27T11:11:08.320Z,849.00
2023-04-27T11:12:07.429Z,713.00
2023-04-27T11:13:07.383Z,814.00
2023-04-27T11:14:07.457Z,871.00
2023-04-27T11:15:07.435Z,1041.00
2023-04-27T11:16:07.549Z,1174.00
2023-04-27T11:17:07.539Z,1007.00
2023-04-27T11:18:07.583Z,1010.00
2023-04-27T11:19:07.592Z,956.00
2023-04-27T11:20:07.562Z,1039.00
2023-04-27T11:21:08.038Z,1349.00
2023-04-27T11:22:07.947Z,1208.00
2023-04-27T11:23:07.689Z,1122.00
2023-04-27T11:24:07.803Z,1469.00
2023-04-27T11:25:07.841Z,1683.00
2023-04-27T11:26:08.834Z,1311.00
2023-04-27T11:27:07.982Z,1292.00
2023-04-27T11:28:07.870Z,1361.00
2023-04-27T11:29:07.832Z,1464.00
2023-04-27T11:30:08.521Z,1354.00
2023-04-27T11:31:08.916Z,1330.00
2023-04-27T11:32:10.118Z,1337.00
2023-04-27T11:33:08.074Z,1242.00
2023-04-27T11:34:08.430Z,1273.00
2023-04-27T11:35:08.191Z,1386.00
2023-04-27T11:36:07.931Z,1262.00
2023-04-27T11:37:17.523Z,1401.00
2023-04-27T11:38:09.343Z,942.00
2023-04-27T11:39:08.001Z,674.00
2023-04-27T11:40:07.975Z,750.00
2023-04-27T11:41:08.252Z,801.00
2023-04-27T11:42:07.979Z,1054.00
2023-04-27T11:43:08.004Z,877.00
2023-04-27T11:44:08.325Z,1163.00
2023-04-27T11:45:08.443Z,1037.00
2023-04-27T11:46:08.668Z,1240.00
2023-04-27T11:47:08.464Z,1184.00
2023-04-27T11:48:08.013Z,1223.00
2023-04-27T11:49:07.921Z,1025.00
2023-04-27T11:50:07.911Z,627.00
2023-04-27T11:51:07.971Z,731.00
2023-04-27T11:52:07.876Z,733.00
2023-04-27T11:53:07.852Z,665.00
2023-04-27T11:54:07.939Z,535.00
2023-04-27T11:55:07.875Z,533.00
2023-04-27T11:56:07.915Z,598.00
2023-04-27T11:57:07.976Z,964.00
2023-04-27T11:58:07.862Z,763.00
2023-04-27T11:59:07.979Z,1066.00
2023-04-27T12:00:08.109Z,844.00
2023-04-27T12:01:07.836Z,650.00
2023-04-27T12:02:07.952Z,693.00
2023-04-27T12:03:08.032Z,649.00
2023-04-27T12:04:08.061Z,678.00
2023-04-27T12:05:08.099Z,637.00
2023-04-27T12:06:27.749Z,757.00
2023-04-27T12:07:09.369Z,652.00
2023-04-27T12:08:07.868Z,703.00
2023-04-27T12:09:07.863Z,607.00
2023-04-27T12:10:07.871Z,488.00
2023-04-27T12:11:07.865Z,445.00
2023-04-27T12:12:09.123Z,529.00
2023-04-27T12:13:07.805Z,528.00
2023-04-27T12:14:07.808Z,583.00
2023-04-27T12:15:07.832Z,647.00
2023-04-27T12:16:07.799Z,927.00
2023-04-27T12:17:08.325Z,816.00
2023-04-27T12:18:08.126Z,858.00
2023-04-27T12:19:07.826Z,796.00
2023-04-27T12:20:07.914Z,881.00
2023-04-27T12:21:08.445Z,931.00